createdAt,value
2018-06-27T00:03:48.658Z,97426.86
2018-06-27T00:08:43.171Z,97424.89
2018-06-27T00:13:37.773Z,97419.29
2018-06-27T00:18:32.387Z,97418.77
2018-06-27T00:23:26.898Z,97418.61
2018-06-27T00:28:21.482Z,97414.61
2018-06-27T00:33:16.076Z,97404.08
2018-06-27T00:38:15.793Z,97404.61
2018-06-27T00:43:10.358Z,97404.70
2018-06-27T00:48:05.065Z,97391.80
2018-06-27T00:52:59.624Z,97394.45
2018-06-27T00:57:54.165Z,97388.38
2018-06-27T01:02:48.691Z,97385.17
2018-06-27T01:07:43.227Z,97380.28
2018-06-27T01:12:37.761Z,97372.02
2018-06-27T01:17:32.330Z,97381.44
2018-06-27T01:22:26.888Z,97359.45
2018-06-27T01:27:21.449Z,97361.80
2018-06-27T01:32:15.992Z,97365.85
2018-06-27T01:37:10.610Z,97363.72
2018-06-27T01:42:05.137Z,97365.74
2018-06-27T01:46:59.728Z,97362.98
2018-06-27T01:51:54.281Z,97360.49
2018-06-27T01:56:48.852Z,97362.81
2018-06-27T02:01:43.431Z,97365.83
2018-06-27T02:06:37.960Z,97360.03
2018-06-27T02:11:32.526Z,97361.28
2018-06-27T02:16:27.067Z,97363.01
2018-06-27T02:21:23.015Z,97364.70
2018-06-27T02:26:17.584Z,97364.92
2018-06-27T02:31:11.845Z,97364.66
2018-06-27T02:36:06.538Z,97368.85
2018-06-27T02:41:01.102Z,97372.09
2018-06-27T02:45:55.328Z,97374.03
2018-06-27T02:50:49.854Z,97369.32
2018-06-27T02:55:44.538Z,97368.76
2018-06-27T03:00:39.102Z,97369.52
2018-06-27T03:05:33.684Z,97371.02
2018-06-27T03:10:28.252Z,97368.30
2018-06-27T03:15:22.859Z,97377.70
2018-06-27T03:20:17.438Z,97375.31
2018-06-27T03:25:11.968Z,97371.17
2018-06-27T03:30:07.066Z,97384.25
2018-06-27T03:35:01.618Z,97386.33
2018-06-27T03:39:56.132Z,97386.23
2018-06-27T03:44:50.701Z,97388.77
2018-06-27T03:49:45.025Z,97392.99
2018-06-27T03:54:39.588Z,97401.44
2018-06-27T04:01:03.564Z,97397.15
2018-06-27T04:05:58.117Z,97404.34
2018-06-27T04:10:52.605Z,97406.05
2018-06-27T04:15:47.191Z,97396.86
2018-06-27T04:20:41.729Z,97396.02
2018-06-27T04:25:36.403Z,97391.38
2018-06-27T04:30:30.947Z,97376.20
2018-06-27T04:35:25.215Z,97385.55
2018-06-27T04:40:19.720Z,97385.00
2018-06-27T04:45:14.251Z,97395.86
2018-06-27T04:50:08.829Z,97383.23
2018-06-27T04:55:03.382Z,97374.29
2018-06-27T04:59:57.551Z,97374.27
2018-06-27T05:04:52.221Z,97372.61
2018-06-27T05:09:46.783Z,97371.87
2018-06-27T05:14:41.344Z,97370.48
2018-06-27T05:19:43.069Z,97375.86
2018-06-27T05:24:37.701Z,97379.95
2018-06-27T05:29:32.364Z,97385.19
2018-06-27T05:34:26.863Z,97383.11
2018-06-27T05:39:21.368Z,97390.97
2018-06-27T05:44:15.942Z,97406.05
2018-06-27T05:49:10.628Z,97406.22
2018-06-27T05:54:05.318Z,97412.02
2018-06-27T05:58:59.834Z,97411.87
2018-06-27T06:03:54.360Z,97433.13
2018-06-27T06:08:48.960Z,97427.72
2018-06-27T06:13:43.278Z,97431.17
2018-06-27T06:18:40.112Z,97434.67
2018-06-27T06:23:34.821Z,97428.06
2018-06-27T06:28:30.573Z,97436.70
2018-06-27T06:33:25.137Z,97437.34
2018-06-27T06:38:19.642Z,97433.52
2018-06-27T06:43:15.575Z,97435.89
2018-06-27T06:48:25.381Z,97430.57
2018-06-27T06:53:20.045Z,97420.30
2018-06-27T06:58:14.649Z,97438.27
2018-06-27T07:03:09.420Z,97442.34
2018-06-27T07:08:11.584Z,97437.53
2018-06-27T07:13:07.569Z,97440.21
2018-06-27T07:18:06.783Z,97433.22
2018-06-27T07:23:01.807Z,97441.55
2018-06-27T07:27:56.550Z,97443.59
2018-06-27T07:32:51.060Z,97432.47
2018-06-27T07:37:45.630Z,97429.78
2018-06-27T07:42:40.315Z,97424.70
2018-06-27T07:47:35.429Z,97423.70
2018-06-27T07:52:30.125Z,97429.78
2018-06-27T07:57:25.034Z,97429.95
2018-06-27T08:02:19.727Z,97425.92
2018-06-27T08:07:14.421Z,97426.95
2018-06-27T08:12:08.935Z,97413.91
2018-06-27T08:17:03.979Z,97428.06
2018-06-27T08:21:58.562Z,97428.09
2018-06-27T08:26:53.225Z,97415.88
2018-06-27T08:31:58.903Z,97393.45
2018-06-27T08:37:03.049Z,97390.12
2018-06-27T08:42:01.852Z,97382.08
2018-06-27T08:46:56.674Z,97384.92
2018-06-27T08:51:52.830Z,97382.84
2018-06-27T08:56:47.450Z,97374.34
2018-06-27T09:01:51.686Z,97362.93
2018-06-27T09:06:46.877Z,97364.06
2018-06-27T09:11:42.322Z,97358.48
2018-06-27T09:16:37.269Z,97362.72
2018-06-27T09:21:32.241Z,97359.83
2018-06-27T09:26:26.882Z,97351.27
2018-06-27T09:31:21.594Z,97352.13
2018-06-27T09:36:16.157Z,97338.40
2018-06-27T09:41:10.873Z,97341.27
2018-06-27T09:46:06.139Z,97334.06
2018-06-27T09:51:00.693Z,97338.07
2018-06-27T09:55:55.261Z,97329.44
2018-06-27T10:00:50.177Z,97327.69
2018-06-27T10:05:44.628Z,97312.26
2018-06-27T10:10:39.238Z,97314.23
2018-06-27T10:15:33.938Z,97326.89
2018-06-27T10:20:28.255Z,97308.19
2018-06-27T10:25:22.853Z,97305.70
2018-06-27T10:30:17.642Z,97309.28
2018-06-27T10:35:12.609Z,97302.53
2018-06-27T10:40:07.209Z,97291.25
2018-06-27T10:45:01.927Z,97307.47
2018-06-27T10:49:56.662Z,97284.62
2018-06-27T10:54:52.143Z,97279.59
2018-06-27T10:59:46.910Z,97280.31
2018-06-27T11:04:41.997Z,97274.25
2018-06-27T11:09:36.718Z,97276.52
2018-06-27T11:14:41.427Z,97265.42
2018-06-27T11:19:36.971Z,97263.16
2018-06-27T11:24:31.716Z,97270.62
2018-06-27T11:29:26.613Z,97259.55
2018-06-27T11:34:21.728Z,97250.06
2018-06-27T11:39:17.927Z,97240.14
2018-06-27T11:44:12.930Z,97229.11
2018-06-27T11:49:07.763Z,97223.73
2018-06-27T11:54:02.625Z,97216.31
2018-06-27T11:58:57.333Z,97215.68
2018-06-27T12:03:52.144Z,97215.61
2018-06-27T12:08:46.963Z,97230.12
2018-06-27T12:13:41.703Z,97220.48
2018-06-27T12:18:36.313Z,97211.20
2018-06-27T12:23:31.533Z,97205.42
2018-06-27T12:28:26.108Z,97196.44
2018-06-27T12:33:21.229Z,97202.78
2018-06-27T12:38:15.866Z,97192.47
2018-06-27T12:43:10.678Z,97196.53
2018-06-27T12:48:05.618Z,97193.02
2018-06-27T12:53:00.379Z,97186.99
2018-06-27T12:57:55.151Z,97186.12
2018-06-27T13:02:49.832Z,97178.39
2018-06-27T13:07:44.452Z,97169.17
2018-06-27T13:12:39.533Z,97168.17
2018-06-27T13:17:34.153Z,97176.53
2018-06-27T13:22:28.661Z,97172.23
2018-06-27T13:27:23.117Z,97170.27
2018-06-27T13:32:17.575Z,97180.92
2018-06-27T13:37:13.007Z,97187.10
2018-06-27T13:42:08.037Z,97189.77
2018-06-27T13:47:02.567Z,97186.20
2018-06-27T13:51:57.262Z,97183.45
2018-06-27T13:56:51.881Z,97195.04
2018-06-27T14:01:46.509Z,97188.97
2018-06-27T14:06:41.126Z,97188.77
2018-06-27T14:11:35.711Z,97190.45
2018-06-27T14:16:30.351Z,97184.74
2018-06-27T14:21:24.882Z,97183.45
2018-06-27T14:26:19.523Z,97179.03
2018-06-27T14:31:14.122Z,97176.07
2018-06-27T14:36:08.721Z,97180.55
2018-06-27T14:42:33.710Z,97178.78
2018-06-27T14:47:28.330Z,97183.17
2018-06-27T14:52:23.045Z,97183.53
2018-06-27T14:57:18.001Z,97183.84
2018-06-27T15:02:12.808Z,97173.87
2018-06-27T15:07:07.376Z,97168.91
2018-06-27T15:12:02.061Z,97162.12
2018-06-27T15:16:56.685Z,97149.75
2018-06-27T15:21:51.337Z,97138.07
2018-06-27T15:26:46.020Z,97135.26
2018-06-27T15:31:40.781Z,97130.68
2018-06-27T15:36:35.297Z,97121.95
2018-06-27T15:41:29.915Z,97110.45
2018-06-27T15:46:24.638Z,97114.13
2018-06-27T15:51:19.217Z,97107.09
2018-06-27T15:56:13.784Z,97104.22
2018-06-27T16:01:08.247Z,97103.03
2018-06-27T16:06:02.845Z,97094.30
2018-06-27T16:10:57.652Z,97099.64
2018-06-27T16:15:52.282Z,97093.51
2018-06-27T16:20:46.885Z,97093.16
2018-06-27T16:25:41.532Z,97091.14
2018-06-27T16:30:36.118Z,97096.80
2018-06-27T16:35:30.748Z,97101.45
2018-06-27T16:40:25.255Z,97104.61
2018-06-27T16:45:19.929Z,97116.52
2018-06-27T16:50:14.538Z,97110.52
2018-06-27T16:55:09.192Z,97101.59
2018-06-27T17:00:05.164Z,97118.50
2018-06-27T17:04:59.741Z,97099.97
2018-06-27T17:09:54.285Z,97099.50
2018-06-27T17:14:48.869Z,97112.28
2018-06-27T17:19:43.330Z,97109.33
2018-06-27T17:24:38.037Z,97105.64
2018-06-27T17:29:32.592Z,97110.59
2018-06-27T17:34:27.197Z,97104.34
2018-06-27T17:39:22.092Z,97112.53
2018-06-27T17:44:16.295Z,97108.84
2018-06-27T17:49:10.853Z,97107.66
2018-06-27T17:54:05.938Z,97110.94
2018-06-27T17:59:00.249Z,97118.05
2018-06-27T18:03:54.832Z,97122.75
2018-06-27T18:08:49.429Z,97122.66
2018-06-27T18:13:44.030Z,97124.81
2018-06-27T18:18:38.696Z,97127.23
2018-06-27T18:23:33.317Z,97129.58
2018-06-27T18:28:27.812Z,97146.55
2018-06-27T18:33:22.433Z,97143.16
2018-06-27T18:38:18.162Z,97138.38
2018-06-27T18:43:12.680Z,97137.89
2018-06-27T18:48:07.265Z,97149.77
2018-06-27T18:53:02.036Z,97143.09
2018-06-27T18:57:56.655Z,97155.98
2018-06-27T19:02:51.201Z,97153.73
2018-06-27T19:07:45.807Z,97159.34
2018-06-27T19:12:40.518Z,97160.07
2018-06-27T19:17:35.069Z,97163.07
2018-06-27T19:22:29.645Z,97168.64
2018-06-27T19:27:25.011Z,97180.06
2018-06-27T19:32:19.618Z,97178.55
2018-06-27T19:37:14.165Z,97183.52
2018-06-27T19:42:08.775Z,97186.83
2018-06-27T19:47:03.365Z,97196.98
2018-06-27T19:51:57.852Z,97201.57
2018-06-27T19:56:52.382Z,97204.39
2018-06-27T20:01:46.901Z,97210.81
2018-06-27T20:06:41.557Z,97207.70
2018-06-27T20:11:35.896Z,97214.13
2018-06-27T20:16:30.529Z,97221.61
2018-06-27T20:21:25.131Z,97217.67
2018-06-27T20:26:19.722Z,97233.47
2018-06-27T20:31:14.317Z,97235.91
2018-06-27T20:36:08.842Z,97233.48
2018-06-27T20:41:03.505Z,97238.34
2018-06-27T20:45:58.125Z,97232.74
2018-06-27T20:50:52.744Z,97233.30
2018-06-27T20:55:47.012Z,97244.25
2018-06-27T21:00:41.598Z,97240.27
2018-06-27T21:05:36.155Z,97237.08
2018-06-27T21:10:30.658Z,97236.01
2018-06-27T21:15:25.293Z,97236.29
2018-06-27T21:20:19.894Z,97241.61
2018-06-27T21:25:14.428Z,97242.69
2018-06-27T21:30:09.714Z,97255.46
2018-06-27T21:35:04.324Z,97259.20
2018-06-27T21:39:59.558Z,97265.61
2018-06-27T21:44:54.181Z,97258.93
2018-06-27T21:49:48.756Z,97264.27
2018-06-27T21:54:43.422Z,97271.45
2018-06-27T21:59:37.953Z,97260.02
2018-06-27T22:04:32.501Z,97267.71
2018-06-27T22:09:27.094Z,97263.99
2018-06-27T22:14:21.641Z,97267.13
2018-06-27T22:19:16.128Z,97270.56
2018-06-27T22:24:10.599Z,97266.80
2018-06-27T22:29:05.109Z,97260.65
2018-06-27T22:33:59.622Z,97258.24
2018-06-27T22:38:54.145Z,97269.38
2018-06-27T22:43:48.620Z,97259.71
2018-06-27T22:48:43.156Z,97265.02
2018-06-27T22:53:37.612Z,97254.94
2018-06-27T22:58:32.135Z,97255.08
2018-06-27T23:03:26.619Z,97251.88
2018-06-27T23:08:21.073Z,97243.84
2018-06-27T23:13:15.568Z,97244.60
2018-06-27T23:18:10.171Z,97246.73
2018-06-27T23:23:04.672Z,97245.27
2018-06-27T23:27:59.107Z,97247.09
2018-06-27T23:32:53.599Z,97240.95
2018-06-27T23:37:48.074Z,97257.58
2018-06-27T23:42:42.529Z,97245.64
2018-06-27T23:47:36.977Z,97235.28
2018-06-27T23:52:31.551Z,97235.56
2018-06-27T23:57:26.090Z,97232.63
